Koyo — JD2279 — position and weather

sailwx.info

Track history (hours):
 
Tides and Currents Weather Stations Pressure Air Temp Water Temp Dewpoint Dewpoint Depression Visibility Wind Speed Wind Dir Waves Ship Positions

Koyo

Last reported at 2015-Jan-31 18:33 UTC. Time now 2015-Jan-31 19:14 UTC.
Position N 34°41' E 135°13'.

Length 80 m; draft 3.6 m.

Type: Cargo ship. MMSI: 431301812.

Date/timePositionNaut miles runAvg speedWind from/ knotsBaromVisibWave heightAir tempDewpointWater temp
2015-Jan-31 18:33N 34°41' E 135°13'0 0.0
2015-Jan-31 17:33N 34°41' E 135°13'0 0.0
2015-Jan-31 16:33N 34°41' E 135°13'0 0.0
2015-Jan-31 15:33N 34°41' E 135°13'0 0.0
2015-Jan-31 14:33N 34°41' E 135°13'0 0.0
2015-Jan-31 13:21N 34°41' E 135°13'0 0.0
2015-Jan-31 12:33N 34°41' E 135°13'0 0.0
2015-Jan-31 11:33N 34°41' E 135°13'3 2.8
2015-Jan-31 10:33N 34°39' E 135°16'1211.9
2015-Jan-31 09:33N 34°29' E 135°10'1312.3
2015-Jan-31 08:30N 34°18' E 135°00'1312.2
2015-Jan-31 07:28N 34°09' E 134°50'26 1.2
2015-Jan-30 10:33N 34°34' E 134°50'1010.1
2015-Jan-30 09:33N 34°37' E 135°02'1010.5
2015-Jan-30 08:33N 34°38' E 135°14'2 1.6
2015-Jan-30 07:25N 34°40' E 135°14'0 0.1
2015-Jan-30 06:33N 34°40' E 135°14'2 2.1
2015-Jan-30 05:33N 34°37' E 135°15'1211.6
2015-Jan-30 04:31N 34°37' E 135°00'11 0.3
2015-Jan-28 12:08N 34°34' E 134°47'711.5
2015-Jan-28 11:33N 34°36' E 134°55'1010.2
2015-Jan-28 10:33N 34°36' E 135°07'1312.9
2015-Jan-28 09:33N 34°38' E 135°23'2 1.9
2015-Jan-28 08:33N 34°38' E 135°25'0 0.0
2015-Jan-28 07:33N 34°38' E 135°25'0 0.0
2015-Jan-28 06:32N 34°38' E 135°25'8 7.7
2015-Jan-28 05:33N 34°39' E 135°16'2 1.5
2015-Jan-28 04:33N 34°40' E 135°14'0 0.0
2015-Jan-28 03:33N 34°40' E 135°14'2 2.3
2015-Jan-28 02:33N 34°37' E 135°15'8 7.8
2015-Jan-28 01:33N 34°34' E 135°07'1010.4
2015-Jan-28 00:33N 34°35' E 134°54'1 0.0
2015-Jan-26 03:32N 34°36' E 134°54'1212.6
2015-Jan-26 02:33N 34°37' E 135°09'5 5.0
2015-Jan-26 01:33N 34°40' E 135°14'0 0.0
2015-Jan-26 00:33N 34°40' E 135°14'0 0.0
2015-Jan-25 23:23N 34°40' E 135°14'2 2.6
2015-Jan-25 22:31N 34°41' E 135°13'0 0.0
2015-Jan-25 21:31N 34°41' E 135°13'0 0.0
2015-Jan-25 20:31N 34°41' E 135°13'0 0.0
2015-Jan-25 19:31N 34°41' E 135°13'0 0.0
2015-Jan-25 18:31N 34°41' E 135°13'0 0.0
2015-Jan-25 17:31N 34°41' E 135°13'0 0.0
2015-Jan-25 16:31N 34°41' E 135°13'0 0.0
2015-Jan-25 15:31N 34°41' E 135°13'0 0.0
2015-Jan-25 14:31N 34°41' E 135°13'0 0.0
2015-Jan-25 13:31N 34°41' E 135°13'0 0.0
2015-Jan-25 12:31N 34°41' E 135°13'0 0.0
2015-Jan-25 11:25N 34°41' E 135°13'0 0.0
2015-Jan-25 10:19N 34°41' E 135°13'0 0.0
2015-Jan-25 09:31N 34°41' E 135°13'0 0.0
2015-Jan-25 08:31N 34°41' E 135°13'1 1.3
2015-Jan-25 07:33N 34°41' E 135°14'1111.1
2015-Jan-25 06:32N 34°30' E 135°11'1312.0
2015-Jan-25 05:29N 34°20' E 135°01'1212.0
2015-Jan-25 04:26N 34°08' E 134°58'7 0.1
2015-Jan-23 05:19N 34°01' E 134°54'1013.8
2015-Jan-23 04:33N 34°11' E 134°57'1413.0
2015-Jan-23 03:29N 34°24' E 135°03'1313.7
2015-Jan-23 02:33N 34°35' E 135°12'5 5.2
2015-Jan-23 01:33N 34°40' E 135°14'0 0.1
2015-Jan-23 00:33N 34°40' E 135°14'0 0.0
2015-Jan-22 23:33N 34°40' E 135°14'4 4.5
2015-Jan-22 22:33N 34°35' E 135°13'9 9.0
2015-Jan-22 21:33N 34°36' E 135°02'1111.5
2015-Jan-22 20:33N 34°33' E 134°48'  
Track history (hours):
 
Tides and Currents Weather Stations Pressure Air Temp Water Temp Dewpoint Dewpoint Depression Visibility Wind Speed Wind Dir Waves Ship Positions

Koyo

Last reported at 2015-Jan-31 18:33 UTC. Time now 2015-Jan-31 19:14 UTC.
Position N 34°41' E 135°13'.

Length 80 m; draft 3.6 m.

Type: Cargo ship. MMSI: 431301812.

Date/timePositionNaut miles runAvg speedWind from/ knotsBaromVisibWave heightAir tempDewpointWater temp
2015-Jan-31 18:33N 34°41' E 135°13'0 0.0
2015-Jan-31 17:33N 34°41' E 135°13'0 0.0
2015-Jan-31 16:33N 34°41' E 135°13'0 0.0
2015-Jan-31 15:33N 34°41' E 135°13'0 0.0
2015-Jan-31 14:33N 34°41' E 135°13'0 0.0
2015-Jan-31 13:21N 34°41' E 135°13'0 0.0
2015-Jan-31 12:33N 34°41' E 135°13'0 0.0
2015-Jan-31 11:33N 34°41' E 135°13'3 2.8
2015-Jan-31 10:33N 34°39' E 135°16'1211.9
2015-Jan-31 09:33N 34°29' E 135°10'1312.3
2015-Jan-31 08:30N 34°18' E 135°00'1312.2
2015-Jan-31 07:28N 34°09' E 134°50'26 1.2
2015-Jan-30 10:33N 34°34' E 134°50'1010.1
2015-Jan-30 09:33N 34°37' E 135°02'1010.5
2015-Jan-30 08:33N 34°38' E 135°14'2 1.6
2015-Jan-30 07:25N 34°40' E 135°14'0 0.1
2015-Jan-30 06:33N 34°40' E 135°14'2 2.1
2015-Jan-30 05:33N 34°37' E 135°15'1211.6
2015-Jan-30 04:31N 34°37' E 135°00'11 0.3
2015-Jan-28 12:08N 34°34' E 134°47'711.5
2015-Jan-28 11:33N 34°36' E 134°55'1010.2
2015-Jan-28 10:33N 34°36' E 135°07'1312.9
2015-Jan-28 09:33N 34°38' E 135°23'2 1.9
2015-Jan-28 08:33N 34°38' E 135°25'0 0.0
2015-Jan-28 07:33N 34°38' E 135°25'0 0.0
2015-Jan-28 06:32N 34°38' E 135°25'8 7.7
2015-Jan-28 05:33N 34°39' E 135°16'2 1.5
2015-Jan-28 04:33N 34°40' E 135°14'0 0.0
2015-Jan-28 03:33N 34°40' E 135°14'2 2.3
2015-Jan-28 02:33N 34°37' E 135°15'8 7.8
2015-Jan-28 01:33N 34°34' E 135°07'1010.4
2015-Jan-28 00:33N 34°35' E 134°54'1 0.0
2015-Jan-26 03:32N 34°36' E 134°54'1212.6
2015-Jan-26 02:33N 34°37' E 135°09'5 5.0
2015-Jan-26 01:33N 34°40' E 135°14'0 0.0
2015-Jan-26 00:33N 34°40' E 135°14'0 0.0
2015-Jan-25 23:23N 34°40' E 135°14'2 2.6
2015-Jan-25 22:31N 34°41' E 135°13'0 0.0
2015-Jan-25 21:31N 34°41' E 135°13'0 0.0
2015-Jan-25 20:31N 34°41' E 135°13'0 0.0
2015-Jan-25 19:31N 34°41' E 135°13'0 0.0
2015-Jan-25 18:31N 34°41' E 135°13'0 0.0
2015-Jan-25 17:31N 34°41' E 135°13'0 0.0
2015-Jan-25 16:31N 34°41' E 135°13'0 0.0
2015-Jan-25 15:31N 34°41' E 135°13'0 0.0
2015-Jan-25 14:31N 34°41' E 135°13'0 0.0
2015-Jan-25 13:31N 34°41' E 135°13'0 0.0
2015-Jan-25 12:31N 34°41' E 135°13'0 0.0
2015-Jan-25 11:25N 34°41' E 135°13'0 0.0
2015-Jan-25 10:19N 34°41' E 135°13'0 0.0
2015-Jan-25 09:31N 34°41' E 135°13'0 0.0
2015-Jan-25 08:31N 34°41' E 135°13'1 1.3
2015-Jan-25 07:33N 34°41' E 135°14'1111.1
2015-Jan-25 06:32N 34°30' E 135°11'1312.0
2015-Jan-25 05:29N 34°20' E 135°01'1212.0
2015-Jan-25 04:26N 34°08' E 134°58'7 0.1
2015-Jan-23 05:19N 34°01' E 134°54'1013.8
2015-Jan-23 04:33N 34°11' E 134°57'1413.0
2015-Jan-23 03:29N 34°24' E 135°03'1313.7
2015-Jan-23 02:33N 34°35' E 135°12'5 5.2
2015-Jan-23 01:33N 34°40' E 135°14'0 0.1
2015-Jan-23 00:33N 34°40' E 135°14'0 0.0
2015-Jan-22 23:33N 34°40' E 135°14'4 4.5
2015-Jan-22 22:33N 34°35' E 135°13'9 9.0
2015-Jan-22 21:33N 34°36' E 135°02'1111.5
2015-Jan-22 20:33N 34°33' E 134°48'  

Dump ship's entire track history